sensor_id;sensor_type;location;lat;lon;timestamp;P1;durP1;ratioP1;P2;durP2;ratioP2
21305;SDS011;10812;51.838;5.838;2023-06-14T00:02:11;3.40;;;2.63;;
21305;SDS011;10812;51.838;5.838;2023-06-14T00:04:39;3.67;;;2.45;;
21305;SDS011;10812;51.838;5.838;2023-06-14T00:07:09;5.55;;;2.55;;
21305;SDS011;10812;51.838;5.838;2023-06-14T00:09:40;4.28;;;2.70;;
21305;SDS011;10812;51.838;5.838;2023-06-14T00:12:09;5.05;;;2.30;;
21305;SDS011;10812;51.838;5.838;2023-06-14T00:14:38;5.68;;;2.50;;
21305;SDS011;10812;51.838;5.838;2023-06-14T00:17:06;3.40;;;2.60;;
21305;SDS011;10812;51.838;5.838;2023-06-14T00:19:35;7.20;;;3.50;;
21305;SDS011;10812;51.838;5.838;2023-06-14T00:22:03;5.40;;;2.83;;
21305;SDS011;10812;51.838;5.838;2023-06-14T00:24:33;3.17;;;2.25;;
21305;SDS011;10812;51.838;5.838;2023-06-14T00:27:02;4.50;;;3.08;;
21305;SDS011;10812;51.838;5.838;2023-06-14T00:29:30;6.50;;;2.80;;
21305;SDS011;10812;51.838;5.838;2023-06-14T00:31:58;3.47;;;2.60;;
21305;SDS011;10812;51.838;5.838;2023-06-14T00:34:26;2.97;;;2.20;;
21305;SDS011;10812;51.838;5.838;2023-06-14T00:36:54;3.85;;;2.83;;
21305;SDS011;10812;51.838;5.838;2023-06-14T00:39:22;3.80;;;2.35;;
21305;SDS011;10812;51.838;5.838;2023-06-14T00:41:52;5.80;;;2.63;;
21305;SDS011;10812;51.838;5.838;2023-06-14T00:44:20;5.82;;;2.55;;
21305;SDS011;10812;51.838;5.838;2023-06-14T00:46:48;6.55;;;2.50;;
21305;SDS011;10812;51.838;5.838;2023-06-14T00:49:18;7.13;;;2.25;;
21305;SDS011;10812;51.838;5.838;2023-06-14T00:51:47;5.43;;;2.85;;
21305;SDS011;10812;51.838;5.838;2023-06-14T00:54:15;7.95;;;2.60;;
21305;SDS011;10812;51.838;5.838;2023-06-14T00:56:43;3.40;;;2.15;;
21305;SDS011;10812;51.838;5.838;2023-06-14T00:59:13;3.17;;;2.30;;
21305;SDS011;10812;51.838;5.838;2023-06-14T01:01:42;4.35;;;2.40;;
21305;SDS011;10812;51.838;5.838;2023-06-14T01:04:11;3.78;;;2.50;;
21305;SDS011;10812;51.838;5.838;2023-06-14T01:06:41;5.90;;;2.35;;
21305;SDS011;10812;51.838;5.838;2023-06-14T01:09:18;3.97;;;2.60;;
21305;SDS011;10812;51.838;5.838;2023-06-14T01:11:57;5.05;;;2.65;;
21305;SDS011;10812;51.838;5.838;2023-06-14T01:14:34;3.47;;;2.15;;
21305;SDS011;10812;51.838;5.838;2023-06-14T01:17:04;2.90;;;2.40;;
21305;SDS011;10812;51.838;5.838;2023-06-14T01:19:34;4.40;;;2.42;;
21305;SDS011;10812;51.838;5.838;2023-06-14T01:22:02;3.95;;;2.45;;
21305;SDS011;10812;51.838;5.838;2023-06-14T01:24:32;2.50;;;2.10;;
21305;SDS011;10812;51.838;5.838;2023-06-14T01:27:01;4.15;;;2.45;;
21305;SDS011;10812;51.838;5.838;2023-06-14T01:29:30;3.65;;;2.30;;
21305;SDS011;10812;51.838;5.838;2023-06-14T01:31:59;3.75;;;2.40;;
21305;SDS011;10812;51.838;5.838;2023-06-14T01:34:28;5.63;;;2.40;;
21305;SDS011;10812;51.838;5.838;2023-06-14T01:36:58;7.80;;;2.58;;
21305;SDS011;10812;51.838;5.838;2023-06-14T01:39:29;4.38;;;2.33;;
21305;SDS011;10812;51.838;5.838;2023-06-14T01:41:59;7.35;;;2.50;;
21305;SDS011;10812;51.838;5.838;2023-06-14T01:44:28;7.07;;;2.50;;
21305;SDS011;10812;51.838;5.838;2023-06-14T01:46:57;3.08;;;2.13;;
21305;SDS011;10812;51.838;5.838;2023-06-14T01:49:26;4.18;;;2.60;;
21305;SDS011;10812;51.838;5.838;2023-06-14T01:51:55;3.40;;;2.40;;
21305;SDS011;10812;51.838;5.838;2023-06-14T01:54:23;3.00;;;2.07;;
21305;SDS011;10812;51.838;5.838;2023-06-14T01:56:52;4.28;;;2.20;;
21305;SDS011;10812;51.838;5.838;2023-06-14T01:59:22;5.10;;;2.45;;
21305;SDS011;10812;51.838;5.838;2023-06-14T02:01:50;4.07;;;2.20;;
21305;SDS011;10812;51.838;5.838;2023-06-14T02:04:18;4.27;;;2.10;;
21305;SDS011;10812;51.838;5.838;2023-06-14T02:06:46;4.57;;;2.30;;
21305;SDS011;10812;51.838;5.838;2023-06-14T02:09:14;3.57;;;2.40;;
21305;SDS011;10812;51.838;5.838;2023-06-14T02:23:16;3.67;;;2.10;;
21305;SDS011;10812;51.838;5.838;2023-06-14T02:25:44;6.47;;;2.40;;
21305;SDS011;10812;51.838;5.838;2023-06-14T02:28:13;3.23;;;1.80;;
21305;SDS011;10812;51.838;5.838;2023-06-14T02:30:41;3.37;;;2.07;;
21305;SDS011;10812;51.838;5.838;2023-06-14T02:33:09;2.87;;;2.13;;
21305;SDS011;10812;51.838;5.838;2023-06-14T02:35:39;6.33;;;2.30;;
21305;SDS011;10812;51.838;5.838;2023-06-14T02:38:07;2.67;;;2.00;;
21305;SDS011;10812;51.838;5.838;2023-06-14T02:40:37;4.00;;;2.37;;
21305;SDS011;10812;51.838;5.838;2023-06-14T02:43:05;2.87;;;2.03;;
21305;SDS011;10812;51.838;5.838;2023-06-14T02:45:33;5.17;;;3.43;;
21305;SDS011;10812;51.838;5.838;2023-06-14T02:48:01;3.28;;;2.13;;
21305;SDS011;10812;51.838;5.838;2023-06-14T02:50:30;5.50;;;2.73;;
21305;SDS011;10812;51.838;5.838;2023-06-14T02:52:58;3.27;;;2.30;;
21305;SDS011;10812;51.838;5.838;2023-06-14T02:55:26;8.10;;;2.57;;
21305;SDS011;10812;51.838;5.838;2023-06-14T03:11:28;4.37;;;2.53;;
21305;SDS011;10812;51.838;5.838;2023-06-14T03:13:56;5.30;;;2.27;;
21305;SDS011;10812;51.838;5.838;2023-06-14T03:16:25;4.97;;;2.30;;
21305;SDS011;10812;51.838;5.838;2023-06-14T03:18:55;3.30;;;2.30;;
21305;SDS011;10812;51.838;5.838;2023-06-14T03:21:23;5.10;;;2.40;;
21305;SDS011;10812;51.838;5.838;2023-06-14T03:23:52;3.50;;;2.80;;
21305;SDS011;10812;51.838;5.838;2023-06-14T03:26:20;6.67;;;2.90;;
21305;SDS011;10812;51.838;5.838;2023-06-14T03:28:50;5.40;;;2.50;;
21305;SDS011;10812;51.838;5.838;2023-06-14T03:31:18;4.40;;;2.60;;
21305;SDS011;10812;51.838;5.838;2023-06-14T03:40:27;4.90;;;2.50;;
21305;SDS011;10812;51.838;5.838;2023-06-14T03:42:55;6.17;;;2.30;;
21305;SDS011;10812;51.838;5.838;2023-06-14T03:45:24;3.17;;;2.03;;
21305;SDS011;10812;51.838;5.838;2023-06-14T03:47:53;3.27;;;2.30;;
21305;SDS011;10812;51.838;5.838;2023-06-14T03:50:23;4.07;;;2.37;;
21305;SDS011;10812;51.838;5.838;2023-06-14T03:52:51;3.20;;;2.10;;
21305;SDS011;10812;51.838;5.838;2023-06-14T03:55:19;3.70;;;2.17;;
21305;SDS011;10812;51.838;5.838;2023-06-14T03:58:07;5.60;;;2.50;;
21305;SDS011;10812;51.838;5.838;2023-06-14T04:00:37;3.00;;;2.40;;
21305;SDS011;10812;51.838;5.838;2023-06-14T04:03:06;4.80;;;1.93;;
21305;SDS011;10812;51.838;5.838;2023-06-14T04:05:34;4.23;;;2.40;;
21305;SDS011;10812;51.838;5.838;2023-06-14T04:08:03;3.37;;;2.30;;
21305;SDS011;10812;51.838;5.838;2023-06-14T04:10:35;2.93;;;2.00;;
21305;SDS011;10812;51.838;5.838;2023-06-14T04:13:03;3.47;;;2.50;;
21305;SDS011;10812;51.838;5.838;2023-06-14T04:15:33;6.60;;;2.27;;
21305;SDS011;10812;51.838;5.838;2023-06-14T04:18:03;3.13;;;2.10;;
21305;SDS011;10812;51.838;5.838;2023-06-14T04:20:32;3.53;;;2.20;;
21305;SDS011;10812;51.838;5.838;2023-06-14T04:23:10;5.87;;;2.40;;
21305;SDS011;10812;51.838;5.838;2023-06-14T04:25:40;3.83;;;2.17;;
21305;SDS011;10812;51.838;5.838;2023-06-14T04:31:35;6.53;;;2.60;;
21305;SDS011;10812;51.838;5.838;2023-06-14T04:34:05;7.57;;;2.47;;
21305;SDS011;10812;51.838;5.838;2023-06-14T04:36:34;3.43;;;2.10;;
21305;SDS011;10812;51.838;5.838;2023-06-14T04:39:03;4.53;;;2.63;;
21305;SDS011;10812;51.838;5.838;2023-06-14T04:41:32;2.43;;;2.07;;
21305;SDS011;10812;51.838;5.838;2023-06-14T04:44:01;4.07;;;2.50;;
21305;SDS011;10812;51.838;5.838;2023-06-14T04:46:29;6.33;;;2.60;;
21305;SDS011;10812;51.838;5.838;2023-06-14T04:48:59;8.00;;;2.57;;
21305;SDS011;10812;51.838;5.838;2023-06-14T04:51:30;4.07;;;2.50;;
21305;SDS011;10812;51.838;5.838;2023-06-14T04:53:59;4.73;;;2.40;;
21305;SDS011;10812;51.838;5.838;2023-06-14T04:56:29;5.10;;;2.70;;
21305;SDS011;10812;51.838;5.838;2023-06-14T04:58:57;5.60;;;2.70;;
21305;SDS011;10812;51.838;5.838;2023-06-14T05:01:26;4.93;;;2.43;;
21305;SDS011;10812;51.838;5.838;2023-06-14T05:03:54;4.90;;;2.43;;
21305;SDS011;10812;51.838;5.838;2023-06-14T05:06:23;3.57;;;2.33;;
21305;SDS011;10812;51.838;5.838;2023-06-14T05:08:52;4.77;;;2.93;;
21305;SDS011;10812;51.838;5.838;2023-06-14T05:11:20;6.03;;;2.63;;
21305;SDS011;10812;51.838;5.838;2023-06-14T05:13:50;7.00;;;2.93;;
21305;SDS011;10812;51.838;5.838;2023-06-14T05:16:18;3.13;;;2.30;;
21305;SDS011;10812;51.838;5.838;2023-06-14T05:18:50;5.43;;;2.70;;
21305;SDS011;10812;51.838;5.838;2023-06-14T05:21:18;6.57;;;2.35;;
21305;SDS011;10812;51.838;5.838;2023-06-14T05:23:46;4.53;;;2.70;;
21305;SDS011;10812;51.838;5.838;2023-06-14T05:26:16;4.00;;;2.50;;
21305;SDS011;10812;51.838;5.838;2023-06-14T05:28:44;3.07;;;2.67;;
21305;SDS011;10812;51.838;5.838;2023-06-14T05:38:54;5.03;;;2.40;;
21305;SDS011;10812;51.838;5.838;2023-06-14T05:41:25;14.93;;;3.22;;
21305;SDS011;10812;51.838;5.838;2023-06-14T05:43:54;11.85;;;3.45;;
21305;SDS011;10812;51.838;5.838;2023-06-14T05:46:23;6.65;;;2.92;;
21305;SDS011;10812;51.838;5.838;2023-06-14T05:48:52;5.85;;;2.80;;
21305;SDS011;10812;51.838;5.838;2023-06-14T05:51:21;2.65;;;2.40;;
21305;SDS011;10812;51.838;5.838;2023-06-14T05:53:51;9.02;;;2.75;;
21305;SDS011;10812;51.838;5.838;2023-06-14T05:56:20;4.47;;;2.22;;
21305;SDS011;10812;51.838;5.838;2023-06-14T05:58:50;5.15;;;2.45;;
21305;SDS011;10812;51.838;5.838;2023-06-14T06:01:18;5.80;;;3.00;;
21305;SDS011;10812;51.838;5.838;2023-06-14T06:03:46;4.95;;;3.03;;
21305;SDS011;10812;51.838;5.838;2023-06-14T06:06:14;4.80;;;2.65;;
21305;SDS011;10812;51.838;5.838;2023-06-14T06:08:43;4.53;;;2.15;;
21305;SDS011;10812;51.838;5.838;2023-06-14T06:11:11;3.72;;;2.55;;
21305;SDS011;10812;51.838;5.838;2023-06-14T06:13:39;3.53;;;2.58;;
21305;SDS011;10812;51.838;5.838;2023-06-14T06:16:09;4.97;;;2.78;;
21305;SDS011;10812;51.838;5.838;2023-06-14T06:18:37;7.32;;;2.78;;
21305;SDS011;10812;51.838;5.838;2023-06-14T06:21:06;4.70;;;2.60;;
21305;SDS011;10812;51.838;5.838;2023-06-14T06:23:34;3.70;;;2.50;;
21305;SDS011;10812;51.838;5.838;2023-06-14T06:26:03;2.80;;;2.38;;
21305;SDS011;10812;51.838;5.838;2023-06-14T06:28:31;4.50;;;3.10;;
21305;SDS011;10812;51.838;5.838;2023-06-14T06:30:59;5.07;;;2.65;;
21305;SDS011;10812;51.838;5.838;2023-06-14T06:33:31;5.07;;;2.67;;
21305;SDS011;10812;51.838;5.838;2023-06-14T06:36:00;11.45;;;2.72;;
21305;SDS011;10812;51.838;5.838;2023-06-14T06:38:28;2.60;;;2.15;;
21305;SDS011;10812;51.838;5.838;2023-06-14T06:40:56;7.32;;;2.83;;
21305;SDS011;10812;51.838;5.838;2023-06-14T06:43:24;7.85;;;2.40;;
21305;SDS011;10812;51.838;5.838;2023-06-14T06:45:52;4.75;;;2.83;;
21305;SDS011;10812;51.838;5.838;2023-06-14T06:48:20;5.07;;;2.35;;
21305;SDS011;10812;51.838;5.838;2023-06-14T06:50:50;6.75;;;2.65;;
21305;SDS011;10812;51.838;5.838;2023-06-14T06:53:18;3.08;;;2.50;;
21305;SDS011;10812;51.838;5.838;2023-06-14T06:56:05;4.50;;;2.75;;
21305;SDS011;10812;51.838;5.838;2023-06-14T06:58:33;4.30;;;2.10;;
21305;SDS011;10812;51.838;5.838;2023-06-14T07:01:01;3.55;;;2.22;;
21305;SDS011;10812;51.838;5.838;2023-06-14T07:03:29;5.57;;;2.72;;
21305;SDS011;10812;51.838;5.838;2023-06-14T07:05:59;4.63;;;2.45;;
21305;SDS011;10812;51.838;5.838;2023-06-14T07:08:27;3.80;;;2.60;;
21305;SDS011;10812;51.838;5.838;2023-06-14T07:10:55;4.07;;;2.83;;
21305;SDS011;10812;51.838;5.838;2023-06-14T07:13:23;3.63;;;2.33;;
21305;SDS011;10812;51.838;5.838;2023-06-14T07:15:53;5.95;;;2.38;;
21305;SDS011;10812;51.838;5.838;2023-06-14T07:18:22;3.70;;;2.40;;
21305;SDS011;10812;51.838;5.838;2023-06-14T07:20:51;4.43;;;2.70;;
21305;SDS011;10812;51.838;5.838;2023-06-14T07:23:21;7.25;;;2.15;;
21305;SDS011;10812;51.838;5.838;2023-06-14T07:25:49;3.60;;;2.13;;
21305;SDS011;10812;51.838;5.838;2023-06-14T07:28:17;3.42;;;2.00;;
21305;SDS011;10812;51.838;5.838;2023-06-14T07:30:46;2.35;;;2.08;;
21305;SDS011;10812;51.838;5.838;2023-06-14T07:33:14;2.65;;;2.08;;
21305;SDS011;10812;51.838;5.838;2023-06-14T07:35:43;4.80;;;2.15;;
21305;SDS011;10812;51.838;5.838;2023-06-14T07:38:12;2.25;;;2.05;;
21305;SDS011;10812;51.838;5.838;2023-06-14T07:40:41;1.70;;;1.60;;
21305;SDS011;10812;51.838;5.838;2023-06-14T07:43:09;3.42;;;1.70;;
21305;SDS011;10812;51.838;5.838;2023-06-14T07:45:38;1.83;;;1.70;;
21305;SDS011;10812;51.838;5.838;2023-06-14T07:48:16;3.22;;;1.40;;
21305;SDS011;10812;51.838;5.838;2023-06-14T07:50:44;1.92;;;1.30;;
21305;SDS011;10812;51.838;5.838;2023-06-14T07:53:12;3.47;;;2.00;;
21305;SDS011;10812;51.838;5.838;2023-06-14T07:55:42;3.30;;;1.40;;
21305;SDS011;10812;51.838;5.838;2023-06-14T07:58:19;4.60;;;1.45;;
21305;SDS011;10812;51.838;5.838;2023-06-14T08:00:47;6.75;;;1.70;;
21305;SDS011;10812;51.838;5.838;2023-06-14T08:03:16;1.52;;;1.42;;
21305;SDS011;10812;51.838;5.838;2023-06-14T08:05:44;4.05;;;2.20;;
21305;SDS011;10812;51.838;5.838;2023-06-14T08:08:13;3.13;;;1.52;;
21305;SDS011;10812;51.838;5.838;2023-06-14T08:10:42;2.20;;;1.60;;
21305;SDS011;10812;51.838;5.838;2023-06-14T08:13:11;5.03;;;1.45;;
21305;SDS011;10812;51.838;5.838;2023-06-14T08:15:39;1.23;;;1.13;;
21305;SDS011;10812;51.838;5.838;2023-06-14T08:21:49;2.63;;;1.23;;
21305;SDS011;10812;51.838;5.838;2023-06-14T08:24:17;1.42;;;1.00;;
21305;SDS011;10812;51.838;5.838;2023-06-14T08:26:52;3.83;;;1.20;;
21305;SDS011;10812;51.838;5.838;2023-06-14T08:29:20;2.00;;;1.40;;
21305;SDS011;10812;51.838;5.838;2023-06-14T08:31:48;2.17;;;1.30;;
21305;SDS011;10812;51.838;5.838;2023-06-14T08:34:16;1.20;;;1.10;;
21305;SDS011;10812;51.838;5.838;2023-06-14T08:36:44;1.65;;;1.25;;
21305;SDS011;10812;51.838;5.838;2023-06-14T08:39:12;2.60;;;1.58;;
21305;SDS011;10812;51.838;5.838;2023-06-14T08:41:41;1.30;;;1.20;;
21305;SDS011;10812;51.838;5.838;2023-06-14T08:44:14;1.98;;;1.42;;
21305;SDS011;10812;51.838;5.838;2023-06-14T08:46:43;2.63;;;1.30;;
21305;SDS011;10812;51.838;5.838;2023-06-14T08:49:12;2.33;;;1.50;;
21305;SDS011;10812;51.838;5.838;2023-06-14T08:51:40;1.73;;;1.35;;
21305;SDS011;10812;51.838;5.838;2023-06-14T08:54:10;2.35;;;1.40;;
21305;SDS011;10812;51.838;5.838;2023-06-14T08:56:40;2.03;;;1.30;;
21305;SDS011;10812;51.838;5.838;2023-06-14T08:59:10;2.97;;;1.50;;
21305;SDS011;10812;51.838;5.838;2023-06-14T09:01:41;1.83;;;1.35;;
21305;SDS011;10812;51.838;5.838;2023-06-14T09:04:29;2.25;;;1.58;;
21305;SDS011;10812;51.838;5.838;2023-06-14T09:06:59;2.88;;;1.55;;
21305;SDS011;10812;51.838;5.838;2023-06-14T09:09:27;3.20;;;1.75;;
21305;SDS011;10812;51.838;5.838;2023-06-14T09:11:55;1.67;;;1.50;;
21305;SDS011;10812;51.838;5.838;2023-06-14T09:14:24;3.25;;;1.67;;
21305;SDS011;10812;51.838;5.838;2023-06-14T09:16:53;1.60;;;1.13;;
21305;SDS011;10812;51.838;5.838;2023-06-14T09:19:22;4.07;;;1.45;;
21305;SDS011;10812;51.838;5.838;2023-06-14T09:21:51;4.72;;;1.88;;
21305;SDS011;10812;51.838;5.838;2023-06-14T09:24:23;3.28;;;1.63;;
21305;SDS011;10812;51.838;5.838;2023-06-14T09:26:52;2.13;;;1.50;;
21305;SDS011;10812;51.838;5.838;2023-06-14T09:29:21;2.90;;;1.35;;
21305;SDS011;10812;51.838;5.838;2023-06-14T09:31:49;2.88;;;1.48;;
21305;SDS011;10812;51.838;5.838;2023-06-14T09:34:19;3.10;;;1.52;;
21305;SDS011;10812;51.838;5.838;2023-06-14T09:36:49;2.35;;;1.45;;
21305;SDS011;10812;51.838;5.838;2023-06-14T09:39:18;3.03;;;1.60;;
21305;SDS011;10812;51.838;5.838;2023-06-14T09:41:46;4.13;;;1.88;;
21305;SDS011;10812;51.838;5.838;2023-06-14T09:44:14;4.78;;;1.33;;
21305;SDS011;10812;51.838;5.838;2023-06-14T09:46:47;1.55;;;1.25;;
21305;SDS011;10812;51.838;5.838;2023-06-14T09:49:16;1.95;;;1.60;;
21305;SDS011;10812;51.838;5.838;2023-06-14T09:51:46;2.20;;;1.40;;
21305;SDS011;10812;51.838;5.838;2023-06-14T09:54:20;3.47;;;1.60;;
21305;SDS011;10812;51.838;5.838;2023-06-14T09:56:50;2.22;;;1.52;;
21305;SDS011;10812;51.838;5.838;2023-06-14T09:59:19;4.93;;;1.80;;
21305;SDS011;10812;51.838;5.838;2023-06-14T10:01:53;1.70;;;1.30;;
21305;SDS011;10812;51.838;5.838;2023-06-14T10:04:25;1.67;;;1.40;;
21305;SDS011;10812;51.838;5.838;2023-06-14T10:06:57;2.22;;;1.38;;
21305;SDS011;10812;51.838;5.838;2023-06-14T10:09:27;3.28;;;1.38;;
21305;SDS011;10812;51.838;5.838;2023-06-14T10:11:58;6.05;;;1.42;;
21305;SDS011;10812;51.838;5.838;2023-06-14T10:14:27;2.58;;;1.20;;
21305;SDS011;10812;51.838;5.838;2023-06-14T10:16:59;1.38;;;1.20;;
21305;SDS011;10812;51.838;5.838;2023-06-14T10:19:34;2.47;;;1.52;;
21305;SDS011;10812;51.838;5.838;2023-06-14T10:22:14;1.98;;;1.30;;
21305;SDS011;10812;51.838;5.838;2023-06-14T10:24:49;2.17;;;1.63;;
21305;SDS011;10812;51.838;5.838;2023-06-14T10:27:17;2.65;;;1.63;;
21305;SDS011;10812;51.838;5.838;2023-06-14T10:32:35;2.47;;;1.42;;
21305;SDS011;10812;51.838;5.838;2023-06-14T10:35:34;2.83;;;1.50;;
21305;SDS011;10812;51.838;5.838;2023-06-14T10:38:11;2.97;;;1.25;;
21305;SDS011;10812;51.838;5.838;2023-06-14T10:40:45;2.08;;;1.00;;
21305;SDS011;10812;51.838;5.838;2023-06-14T10:43:22;3.08;;;1.30;;
21305;SDS011;10812;51.838;5.838;2023-06-14T10:48:44;2.58;;;1.63;;
21305;SDS011;10812;51.838;5.838;2023-06-14T10:51:19;3.53;;;1.17;;
21305;SDS011;10812;51.838;5.838;2023-06-14T10:53:52;3.03;;;1.40;;
21305;SDS011;10812;51.838;5.838;2023-06-14T10:56:24;3.08;;;1.70;;
21305;SDS011;10812;51.838;5.838;2023-06-14T10:58:54;2.45;;;1.60;;
21305;SDS011;10812;51.838;5.838;2023-06-14T11:01:29;4.35;;;1.17;;
21305;SDS011;10812;51.838;5.838;2023-06-14T11:04:08;1.77;;;1.27;;
21305;SDS011;10812;51.838;5.838;2023-06-14T11:06:47;5.20;;;1.67;;
21305;SDS011;10812;51.838;5.838;2023-06-14T11:12:20;3.22;;;1.20;;
21305;SDS011;10812;51.838;5.838;2023-06-14T11:14:49;1.77;;;1.55;;
21305;SDS011;10812;51.838;5.838;2023-06-14T11:17:17;1.35;;;1.17;;
21305;SDS011;10812;51.838;5.838;2023-06-14T11:19:46;2.63;;;1.17;;
21305;SDS011;10812;51.838;5.838;2023-06-14T11:22:14;1.88;;;1.55;;
21305;SDS011;10812;51.838;5.838;2023-06-14T11:24:43;2.50;;;1.65;;
21305;SDS011;10812;51.838;5.838;2023-06-14T11:27:13;1.38;;;1.25;;
21305;SDS011;10812;51.838;5.838;2023-06-14T11:29:47;1.50;;;1.40;;
21305;SDS011;10812;51.838;5.838;2023-06-14T11:32:16;1.85;;;1.35;;
21305;SDS011;10812;51.838;5.838;2023-06-14T11:34:45;4.18;;;1.40;;
21305;SDS011;10812;51.838;5.838;2023-06-14T11:37:14;3.88;;;1.60;;
21305;SDS011;10812;51.838;5.838;2023-06-14T11:39:43;2.42;;;1.40;;
21305;SDS011;10812;51.838;5.838;2023-06-14T11:42:14;1.50;;;1.40;;
21305;SDS011;10812;51.838;5.838;2023-06-14T11:44:45;2.60;;;1.58;;
21305;SDS011;10812;51.838;5.838;2023-06-14T11:47:13;1.95;;;1.50;;
21305;SDS011;10812;51.838;5.838;2023-06-14T11:49:42;1.58;;;1.48;;
21305;SDS011;10812;51.838;5.838;2023-06-14T11:52:10;2.70;;;1.63;;
21305;SDS011;10812;51.838;5.838;2023-06-14T11:54:39;2.63;;;1.38;;
21305;SDS011;10812;51.838;5.838;2023-06-14T11:57:07;4.00;;;1.60;;
21305;SDS011;10812;51.838;5.838;2023-06-14T11:59:41;3.40;;;1.10;;
21305;SDS011;10812;51.838;5.838;2023-06-14T12:02:13;3.33;;;1.52;;
21305;SDS011;10812;51.838;5.838;2023-06-14T12:04:46;7.60;;;1.90;;
21305;SDS011;10812;51.838;5.838;2023-06-14T12:07:16;1.55;;;1.20;;
21305;SDS011;10812;51.838;5.838;2023-06-14T12:12:35;1.38;;;1.27;;
21305;SDS011;10812;51.838;5.838;2023-06-14T12:15:06;3.05;;;1.50;;
21305;SDS011;10812;51.838;5.838;2023-06-14T12:17:38;1.35;;;1.25;;
21305;SDS011;10812;51.838;5.838;2023-06-14T12:20:09;2.30;;;1.40;;
21305;SDS011;10812;51.838;5.838;2023-06-14T12:22:46;2.60;;;1.30;;
21305;SDS011;10812;51.838;5.838;2023-06-14T12:25:26;11.25;;;1.95;;
21305;SDS011;10812;51.838;5.838;2023-06-14T12:27:55;3.30;;;1.75;;
21305;SDS011;10812;51.838;5.838;2023-06-14T12:30:24;1.35;;;1.25;;
21305;SDS011;10812;51.838;5.838;2023-06-14T12:32:52;2.08;;;1.50;;
21305;SDS011;10812;51.838;5.838;2023-06-14T12:35:21;1.50;;;1.20;;
21305;SDS011;10812;51.838;5.838;2023-06-14T12:37:49;2.53;;;1.40;;
21305;SDS011;10812;51.838;5.838;2023-06-14T12:40:21;1.00;;;0.98;;
21305;SDS011;10812;51.838;5.838;2023-06-14T12:42:49;1.10;;;1.00;;
21305;SDS011;10812;51.838;5.838;2023-06-14T12:45:17;3.03;;;1.55;;
21305;SDS011;10812;51.838;5.838;2023-06-14T12:47:48;2.80;;;1.50;;
21305;SDS011;10812;51.838;5.838;2023-06-14T12:50:16;2.55;;;1.20;;
21305;SDS011;10812;51.838;5.838;2023-06-14T12:52:46;2.10;;;1.20;;
21305;SDS011;10812;51.838;5.838;2023-06-14T12:55:15;4.13;;;1.33;;
21305;SDS011;10812;51.838;5.838;2023-06-14T12:57:44;2.00;;;1.33;;
21305;SDS011;10812;51.838;5.838;2023-06-14T13:00:16;2.67;;;1.20;;
21305;SDS011;10812;51.838;5.838;2023-06-14T13:02:45;1.17;;;1.08;;
21305;SDS011;10812;51.838;5.838;2023-06-14T13:05:14;1.13;;;1.00;;
21305;SDS011;10812;51.838;5.838;2023-06-14T13:07:43;2.83;;;1.13;;
21305;SDS011;10812;51.838;5.838;2023-06-14T13:10:11;1.52;;;0.88;;
21305;SDS011;10812;51.838;5.838;2023-06-14T13:12:40;2.13;;;0.90;;
21305;SDS011;10812;51.838;5.838;2023-06-14T13:15:08;1.10;;;1.00;;
21305;SDS011;10812;51.838;5.838;2023-06-14T13:17:37;1.15;;;0.95;;
21305;SDS011;10812;51.838;5.838;2023-06-14T13:20:05;1.50;;;1.00;;
21305;SDS011;10812;51.838;5.838;2023-06-14T13:22:35;3.45;;;1.00;;
21305;SDS011;10812;51.838;5.838;2023-06-14T13:25:04;0.63;;;0.63;;
21305;SDS011;10812;51.838;5.838;2023-06-14T13:27:33;0.93;;;0.88;;
21305;SDS011;10812;51.838;5.838;2023-06-14T13:30:04;4.20;;;1.20;;
21305;SDS011;10812;51.838;5.838;2023-06-14T13:32:33;0.98;;;0.88;;
21305;SDS011;10812;51.838;5.838;2023-06-14T13:35:02;1.65;;;0.98;;
21305;SDS011;10812;51.838;5.838;2023-06-14T13:37:30;2.03;;;1.15;;
21305;SDS011;10812;51.838;5.838;2023-06-14T13:40:00;2.08;;;0.88;;
21305;SDS011;10812;51.838;5.838;2023-06-14T13:42:28;2.88;;;0.90;;
21305;SDS011;10812;51.838;5.838;2023-06-14T13:44:58;2.15;;;0.90;;
21305;SDS011;10812;51.838;5.838;2023-06-14T13:47:26;1.42;;;0.73;;
21305;SDS011;10812;51.838;5.838;2023-06-14T13:49:54;2.90;;;0.90;;
21305;SDS011;10812;51.838;5.838;2023-06-14T13:52:22;0.90;;;0.73;;
21305;SDS011;10812;51.838;5.838;2023-06-14T13:54:51;1.20;;;0.90;;
21305;SDS011;10812;51.838;5.838;2023-06-14T13:57:20;1.25;;;1.00;;
21305;SDS011;10812;51.838;5.838;2023-06-14T13:59:48;0.98;;;0.75;;
21305;SDS011;10812;51.838;5.838;2023-06-14T14:02:17;1.67;;;1.15;;
21305;SDS011;10812;51.838;5.838;2023-06-14T14:04:45;1.15;;;1.02;;
21305;SDS011;10812;51.838;5.838;2023-06-14T14:07:18;1.65;;;0.90;;
21305;SDS011;10812;51.838;5.838;2023-06-14T14:09:48;3.88;;;1.20;;
21305;SDS011;10812;51.838;5.838;2023-06-14T14:12:16;1.10;;;0.80;;
21305;SDS011;10812;51.838;5.838;2023-06-14T14:14:46;1.45;;;0.95;;
21305;SDS011;10812;51.838;5.838;2023-06-14T14:17:14;1.60;;;0.98;;
21305;SDS011;10812;51.838;5.838;2023-06-14T14:19:42;1.15;;;0.77;;
21305;SDS011;10812;51.838;5.838;2023-06-14T14:22:10;2.08;;;1.00;;
21305;SDS011;10812;51.838;5.838;2023-06-14T14:24:38;1.95;;;1.00;;
21305;SDS011;10812;51.838;5.838;2023-06-14T14:27:07;2.45;;;0.98;;
21305;SDS011;10812;51.838;5.838;2023-06-14T14:29:35;1.70;;;1.10;;
21305;SDS011;10812;51.838;5.838;2023-06-14T14:32:05;1.40;;;0.85;;
21305;SDS011;10812;51.838;5.838;2023-06-14T14:34:34;2.28;;;1.15;;
21305;SDS011;10812;51.838;5.838;2023-06-14T14:37:02;1.27;;;1.15;;
21305;SDS011;10812;51.838;5.838;2023-06-14T14:39:30;3.60;;;1.20;;
21305;SDS011;10812;51.838;5.838;2023-06-14T14:41:59;1.00;;;0.90;;
21305;SDS011;10812;51.838;5.838;2023-06-14T14:44:27;1.40;;;1.10;;
21305;SDS011;10812;51.838;5.838;2023-06-14T14:46:55;1.70;;;0.90;;
21305;SDS011;10812;51.838;5.838;2023-06-14T14:49:25;1.42;;;0.70;;
21305;SDS011;10812;51.838;5.838;2023-06-14T14:51:53;1.08;;;0.95;;
21305;SDS011;10812;51.838;5.838;2023-06-14T14:54:30;2.30;;;1.08;;
21305;SDS011;10812;51.838;5.838;2023-06-14T14:56:58;3.55;;;1.17;;
21305;SDS011;10812;51.838;5.838;2023-06-14T14:59:27;1.98;;;1.10;;
21305;SDS011;10812;51.838;5.838;2023-06-14T15:01:55;3.42;;;0.93;;
21305;SDS011;10812;51.838;5.838;2023-06-14T15:04:25;1.70;;;0.90;;
21305;SDS011;10812;51.838;5.838;2023-06-14T15:06:53;1.50;;;1.02;;
21305;SDS011;10812;51.838;5.838;2023-06-14T15:09:21;3.53;;;1.20;;
21305;SDS011;10812;51.838;5.838;2023-06-14T15:11:49;1.13;;;0.90;;
21305;SDS011;10812;51.838;5.838;2023-06-14T15:14:17;1.35;;;1.00;;
21305;SDS011;10812;51.838;5.838;2023-06-14T15:16:46;1.52;;;0.98;;
21305;SDS011;10812;51.838;5.838;2023-06-14T15:19:14;2.95;;;1.00;;
21305;SDS011;10812;51.838;5.838;2023-06-14T15:21:43;1.83;;;1.00;;
21305;SDS011;10812;51.838;5.838;2023-06-14T15:24:12;2.67;;;1.20;;
21305;SDS011;10812;51.838;5.838;2023-06-14T15:26:40;2.35;;;1.02;;
21305;SDS011;10812;51.838;5.838;2023-06-14T15:29:08;1.55;;;1.17;;
21305;SDS011;10812;51.838;5.838;2023-06-14T15:31:36;1.88;;;1.02;;
21305;SDS011;10812;51.838;5.838;2023-06-14T15:34:04;1.15;;;1.05;;
21305;SDS011;10812;51.838;5.838;2023-06-14T15:36:33;3.60;;;1.52;;
21305;SDS011;10812;51.838;5.838;2023-06-14T15:39:03;1.77;;;1.40;;
21305;SDS011;10812;51.838;5.838;2023-06-14T15:41:31;2.70;;;1.38;;
21305;SDS011;10812;51.838;5.838;2023-06-14T15:43:59;1.98;;;1.00;;
21305;SDS011;10812;51.838;5.838;2023-06-14T15:46:27;1.45;;;1.10;;
21305;SDS011;10812;51.838;5.838;2023-06-14T16:03:46;1.65;;;1.05;;
21305;SDS011;10812;51.838;5.838;2023-06-14T16:06:14;4.35;;;1.70;;
21305;SDS011;10812;51.838;5.838;2023-06-14T16:08:43;1.27;;;1.13;;
21305;SDS011;10812;51.838;5.838;2023-06-14T16:11:11;1.90;;;1.20;;
21305;SDS011;10812;51.838;5.838;2023-06-14T16:13:41;3.22;;;1.35;;
21305;SDS011;10812;51.838;5.838;2023-06-14T16:16:09;2.70;;;1.20;;